createdAt,value
2023-04-27T00:02:08.297Z,64.03
2023-04-27T00:07:11.184Z,63.77
2023-04-27T00:12:13.949Z,63.51
2023-04-27T00:17:18.341Z,63.36
2023-04-27T00:22:21.333Z,62.99
2023-04-27T00:27:24.116Z,62.86
2023-04-27T00:32:28.268Z,62.64
2023-04-27T00:37:31.248Z,62.83
2023-04-27T00:42:34.069Z,63.06
2023-04-27T00:47:38.609Z,62.88
2023-04-27T00:52:42.417Z,62.81
2023-04-27T00:57:45.153Z,63.27
2023-04-27T01:02:49.554Z,63.21
2023-04-27T01:07:53.735Z,63.28
2023-04-27T01:12:57.553Z,63.36
2023-04-27T01:18:02.372Z,63.34
2023-04-27T01:23:05.276Z,62.72
2023-04-27T01:28:09.437Z,62.51
2023-04-27T01:33:13.469Z,62.39
2023-04-27T01:38:16.295Z,62.45
2023-04-27T01:43:21.445Z,62.60
2023-04-27T01:48:24.416Z,62.98
2023-04-27T01:53:27.234Z,62.92
2023-04-27T01:58:31.553Z,63.12
2023-04-27T02:03:34.571Z,63.18
2023-04-27T02:08:37.640Z,63.48
2023-04-27T02:13:41.769Z,63.52
2023-04-27T02:18:44.639Z,64.20
2023-04-27T02:23:47.553Z,64.34
2023-04-27T02:28:52.315Z,64.52
2023-04-27T02:33:55.814Z,64.68
2023-04-27T02:39:01.590Z,64.55
2023-04-27T02:44:05.973Z,64.69
2023-04-27T02:49:08.766Z,64.90
2023-04-27T02:54:11.544Z,65.60
2023-04-27T02:59:16.022Z,65.59
2023-04-27T03:04:19.552Z,65.56
2023-04-27T03:09:22.402Z,65.68
2023-04-27T03:14:27.017Z,65.31
2023-04-27T03:19:30.068Z,64.79
2023-04-27T03:24:34.303Z,65.01
2023-04-27T03:29:38.451Z,64.69
2023-04-27T03:34:41.340Z,64.83
2023-04-27T03:39:45.084Z,64.57
2023-04-27T03:44:49.987Z,64.49
2023-04-27T03:49:52.876Z,64.99
2023-04-27T03:54:55.875Z,64.59
2023-04-27T04:00:00.051Z,64.58
2023-04-27T04:05:02.975Z,64.71
2023-04-27T04:10:06.936Z,64.75
2023-04-27T04:15:11.516Z,64.50
2023-04-27T04:20:14.567Z,64.77
2023-04-27T04:25:17.366Z,64.68
2023-04-27T04:30:22.884Z,64.90
2023-04-27T04:35:25.683Z,64.83
2023-04-27T04:40:29.025Z,64.64
2023-04-27T04:45:33.288Z,64.43
2023-04-27T04:50:36.306Z,64.65
2023-04-27T04:55:39.200Z,64.68
2023-04-27T05:00:45.312Z,64.49
2023-04-27T05:05:49.198Z,64.46
2023-04-27T05:10:52.030Z,64.05
2023-04-27T05:15:56.330Z,64.18
2023-04-27T05:20:59.239Z,64.00
2023-04-27T05:26:02.000Z,63.95
2023-04-27T05:31:06.446Z,63.98
2023-04-27T05:36:09.901Z,64.13
2023-04-27T05:41:12.674Z,64.23
2023-04-27T05:46:17.118Z,64.06
2023-04-27T05:51:19.935Z,64.16
2023-04-27T05:56:23.371Z,63.73
2023-04-27T06:01:27.563Z,63.76
2023-04-27T06:06:32.752Z,66.04
2023-04-27T06:11:35.690Z,65.35
2023-04-27T06:16:40.570Z,64.52
2023-04-27T06:21:43.806Z,65.10
2023-04-27T06:26:46.739Z,64.31
2023-04-27T06:31:50.972Z,61.39
2023-04-27T06:36:53.861Z,61.15
2023-04-27T06:41:56.673Z,57.63
2023-04-27T06:47:02.597Z,56.62
2023-04-27T06:52:06.766Z,55.77
2023-04-27T06:57:09.748Z,52.99
2023-04-27T07:02:14.020Z,53.60
2023-04-27T07:07:16.817Z,50.78
2023-04-27T07:12:19.567Z,52.08
2023-04-27T07:17:23.734Z,50.94
2023-04-27T07:22:26.849Z,50.26
2023-04-27T07:27:31.883Z,48.21
2023-04-27T07:32:36.822Z,47.85
2023-04-27T07:37:40.424Z,47.18
2023-04-27T07:42:43.285Z,46.77
2023-04-27T07:47:47.583Z,46.04
2023-04-27T07:52:50.707Z,46.47
2023-04-27T07:57:54.534Z,43.12
2023-04-27T08:02:58.737Z,44.93
2023-04-27T08:08:01.907Z,43.18
2023-04-27T08:13:05.044Z,44.50
2023-04-27T08:18:09.138Z,44.27
2023-04-27T08:23:12.400Z,45.20
2023-04-27T08:28:16.265Z,43.31
2023-04-27T08:33:20.368Z,42.52
2023-04-27T08:38:25.021Z,41.07
2023-04-27T08:43:28.480Z,41.65
2023-04-27T08:48:32.547Z,40.59
2023-04-27T08:53:35.674Z,38.64
2023-04-27T08:58:39.317Z,37.61
2023-04-27T09:08:50.610Z,37.74
2023-04-27T09:13:53.498Z,38.38
2023-04-27T09:18:59.408Z,37.94
2023-04-27T09:24:12.309Z,37.51
2023-04-27T09:29:15.255Z,35.57
2023-04-27T09:34:19.916Z,32.83
2023-04-27T09:39:23.192Z,33.65
2023-04-27T09:44:27.457Z,33.47
2023-04-27T09:49:35.499Z,34.21
2023-04-27T09:54:38.721Z,33.11
2023-04-27T09:59:58.719Z,33.54
2023-04-27T10:05:33.291Z,35.05
2023-04-27T10:10:48.707Z,34.87
2023-04-27T10:15:52.383Z,37.71
2023-04-27T10:20:56.553Z,38.04
2023-04-27T10:26:08.306Z,37.45
2023-04-27T10:31:11.916Z,34.70
2023-04-27T10:36:16.730Z,33.50
2023-04-27T10:41:19.512Z,33.22
2023-04-27T10:46:22.395Z,34.57
2023-04-27T10:51:28.600Z,35.35
2023-04-27T10:56:33.495Z,35.68
2023-04-27T11:01:36.916Z,33.16
2023-04-27T11:06:45.976Z,31.62
2023-04-27T11:11:49.069Z,31.02
2023-04-27T11:16:52.189Z,32.53
2023-04-27T11:22:04.257Z,29.91
2023-04-27T11:27:07.323Z,29.34
2023-04-27T11:32:10.196Z,30.67
2023-04-27T11:37:23.482Z,30.94
2023-04-27T11:42:28.435Z,30.17
2023-04-27T11:47:32.736Z,29.84
2023-04-27T11:52:38.175Z,28.40
2023-04-27T11:57:41.146Z,28.36
2023-04-27T12:02:45.284Z,27.68
2023-04-27T12:07:49.527Z,29.50
2023-04-27T12:12:52.360Z,30.10
2023-04-27T12:17:55.177Z,27.28
2023-04-27T12:22:59.419Z,26.29
2023-04-27T12:28:02.583Z,25.47
2023-04-27T12:33:10.881Z,25.35
2023-04-27T12:38:15.140Z,25.36
2023-04-27T12:43:17.950Z,26.90
2023-04-27T12:48:20.727Z,26.48
2023-04-27T12:53:24.991Z,27.50
2023-04-27T12:58:27.739Z,28.18
2023-04-27T13:03:30.771Z,27.29
2023-04-27T13:08:35.105Z,26.60
2023-04-27T13:13:37.909Z,26.49
2023-04-27T13:18:46.239Z,25.50
2023-04-27T13:23:51.178Z,25.97
2023-04-27T13:28:53.913Z,26.53
2023-04-27T13:33:56.987Z,26.42
2023-04-27T13:39:01.915Z,26.19
2023-04-27T13:44:04.758Z,25.53
2023-04-27T13:49:07.574Z,26.05
2023-04-27T13:54:12.037Z,26.29
2023-04-27T13:59:16.573Z,27.19
2023-04-27T14:04:19.579Z,26.47
2023-04-27T14:09:26.925Z,26.03
2023-04-27T14:14:29.859Z,28.36
2023-04-27T14:19:32.934Z,27.54
2023-04-27T14:24:37.056Z,26.33
2023-04-27T14:29:39.819Z,26.07
2023-04-27T14:34:42.640Z,25.72
2023-04-27T14:39:47.184Z,26.35
2023-04-27T14:44:49.940Z,25.53
2023-04-27T14:49:52.835Z,25.25
2023-04-27T14:54:57.270Z,25.62
2023-04-27T15:00:01.211Z,25.22
2023-04-27T15:06:03.006Z,25.24
2023-04-27T15:11:07.158Z,25.31
2023-04-27T15:16:09.929Z,25.80
2023-04-27T15:21:12.652Z,24.98
2023-04-27T15:26:16.760Z,25.88
2023-04-27T15:31:19.679Z,25.56
2023-04-27T15:36:26.576Z,25.31
2023-04-27T15:41:30.782Z,24.58
2023-04-27T15:46:33.882Z,26.94
2023-04-27T15:51:36.689Z,27.07
2023-04-27T15:56:40.815Z,26.84
2023-04-27T16:01:43.661Z,27.35
2023-04-27T16:06:46.894Z,26.51
2023-04-27T16:11:51.032Z,26.55
2023-04-27T16:16:56.127Z,28.38
2023-04-27T16:22:00.077Z,28.85
2023-04-27T16:27:04.554Z,28.17
2023-04-27T16:32:07.488Z,28.48
2023-04-27T16:37:11.230Z,29.92
2023-04-27T16:42:20.583Z,30.67
2023-04-27T16:47:23.491Z,30.77
2023-04-27T16:52:26.419Z,31.98
2023-04-27T16:57:30.546Z,31.63
2023-04-27T17:02:33.462Z,32.32
2023-04-27T17:07:36.282Z,32.47
2023-04-27T17:12:40.807Z,32.06
2023-04-27T17:17:44.266Z,31.88
2023-04-27T17:22:47.195Z,32.47
2023-04-27T17:27:51.344Z,32.68
2023-04-27T17:32:54.196Z,32.38
2023-04-27T17:37:56.995Z,33.27
2023-04-27T17:43:01.085Z,33.73
2023-04-27T17:48:04.503Z,34.00
2023-04-27T17:53:07.315Z,34.17
2023-04-27T17:58:11.380Z,34.58
2023-04-27T18:03:14.365Z,35.07
2023-04-27T18:08:17.186Z,34.83
2023-04-27T18:13:21.379Z,35.03
2023-04-27T18:18:25.353Z,35.62
2023-04-27T18:23:28.271Z,35.42
2023-04-27T18:28:32.135Z,35.77
2023-04-27T18:33:34.812Z,35.85
2023-04-27T18:38:37.419Z,36.38
2023-04-27T18:43:41.552Z,36.53
2023-04-27T18:48:44.312Z,37.31
2023-04-27T18:53:47.036Z,37.60
2023-04-27T18:58:51.618Z,37.58
2023-04-27T19:03:56.167Z,37.95
2023-04-27T19:08:59.067Z,38.50
2023-04-27T19:14:03.240Z,38.86
2023-04-27T19:19:05.992Z,38.89
2023-04-27T19:24:09.163Z,39.02
2023-04-27T19:29:13.733Z,39.20
2023-04-27T19:34:16.707Z,39.52
2023-04-27T19:39:20.748Z,39.93
2023-04-27T19:44:25.183Z,40.19
2023-04-27T19:49:32.699Z,40.71
2023-04-27T19:54:38.360Z,40.90
2023-04-27T19:59:42.918Z,41.01
2023-04-27T20:04:46.220Z,41.42
2023-04-27T20:09:49.252Z,41.68
2023-04-27T20:14:53.630Z,41.91
2023-04-27T20:19:57.155Z,42.27
2023-04-27T20:25:00.202Z,42.81
2023-04-27T20:30:05.040Z,43.00
2023-04-27T20:35:10.321Z,43.25
2023-04-27T20:40:17.409Z,43.46
2023-04-27T20:45:21.752Z,43.33
2023-04-27T20:55:54.979Z,43.48
2023-04-27T21:00:59.185Z,43.41
2023-04-27T21:06:01.987Z,43.06
2023-04-27T21:11:04.923Z,42.94
2023-04-27T21:16:09.301Z,43.09
2023-04-27T21:21:12.093Z,43.08
2023-04-27T21:26:14.841Z,43.18
2023-04-27T21:31:20.587Z,43.03
2023-04-27T21:36:23.540Z,42.92
2023-04-27T21:41:26.171Z,42.95
2023-04-27T21:46:30.392Z,43.08
2023-04-27T21:51:34.478Z,43.19
2023-04-27T21:56:37.899Z,43.20
2023-04-27T22:01:42.162Z,43.22
2023-04-27T22:06:45.042Z,43.34
2023-04-27T22:11:47.850Z,43.37
2023-04-27T22:16:52.131Z,43.39
2023-04-27T22:21:55.334Z,43.33
2023-04-27T22:26:58.382Z,43.57
2023-04-27T22:32:02.654Z,43.33
2023-04-27T22:37:05.998Z,43.44
2023-04-27T22:42:08.791Z,43.48
2023-04-27T22:47:13.144Z,43.55
2023-04-27T22:52:16.604Z,43.70
2023-04-27T22:57:19.477Z,43.94
2023-04-27T23:02:23.879Z,43.93
2023-04-27T23:12:30.188Z,44.24
2023-04-27T23:17:34.649Z,44.23
2023-04-27T23:22:39.791Z,44.21
2023-04-27T23:27:42.942Z,44.47
2023-04-27T23:32:47.177Z,44.33
2023-04-27T23:37:50.044Z,44.50
2023-04-27T23:42:53.303Z,44.37
2023-04-27T23:47:59.549Z,44.54
2023-04-27T23:53:06.005Z,44.51
2023-04-27T23:58:08.854Z,44.72
